createdAt,value
2022-08-28T00:00:58.932Z,24.40
2022-08-28T00:03:28.431Z,24.40
2022-08-28T00:06:00.929Z,24.50
2022-08-28T00:08:31.914Z,24.50
2022-08-28T00:11:02.410Z,24.30
2022-08-28T00:13:32.892Z,24.20
2022-08-28T00:16:02.827Z,24.20
2022-08-28T00:18:33.757Z,24.20
2022-08-28T00:21:03.852Z,24.20
2022-08-28T00:23:42.274Z,24.20
2022-08-28T00:26:05.022Z,24.20
2022-08-28T00:28:36.235Z,24.10
2022-08-28T00:31:05.942Z,24.00
2022-08-28T00:33:36.871Z,24.00
2022-08-28T00:36:07.361Z,24.00
2022-08-28T00:38:37.143Z,24.00
2022-08-28T00:41:06.751Z,23.80
2022-08-28T00:43:40.144Z,23.80
2022-08-28T00:46:15.560Z,23.00
2022-08-28T00:48:45.161Z,22.40
2022-08-28T00:51:34.165Z,22.40
2022-08-28T00:54:07.758Z,22.40
2022-08-28T00:56:39.177Z,22.20
2022-08-28T00:59:16.051Z,22.70
2022-08-28T01:01:48.899Z,23.10
2022-08-28T01:04:21.385Z,23.40
2022-08-28T01:06:53.939Z,23.50
2022-08-28T01:09:26.899Z,23.50
2022-08-28T01:12:03.350Z,23.50
2022-08-28T01:14:35.642Z,23.30
2022-08-28T01:17:07.133Z,23.30
2022-08-28T01:19:39.743Z,23.30
2022-08-28T01:22:25.667Z,23.30
2022-08-28T01:24:58.348Z,22.40
2022-08-28T01:27:29.923Z,22.50
2022-08-28T01:29:59.527Z,22.80
2022-08-28T01:32:32.055Z,23.10
2022-08-28T01:35:03.447Z,22.80
2022-08-28T01:37:33.031Z,22.90
2022-08-28T01:40:02.716Z,22.90
2022-08-28T01:42:34.177Z,23.00
2022-08-28T01:45:03.924Z,23.00
2022-08-28T01:47:33.483Z,23.00
2022-08-28T01:50:02.986Z,23.10
2022-08-28T01:52:32.567Z,23.20
2022-08-28T01:55:06.048Z,22.80
2022-08-28T01:57:36.724Z,22.10
2022-08-28T02:00:08.367Z,22.30
2022-08-28T02:02:40.097Z,22.50
2022-08-28T02:05:10.302Z,22.70
2022-08-28T02:07:40.491Z,22.70
2022-08-28T02:10:12.023Z,22.80
2022-08-28T02:12:42.073Z,22.80
2022-08-28T02:15:13.165Z,22.80
2022-08-28T02:17:42.674Z,22.60
2022-08-28T02:20:13.078Z,22.60
2022-08-28T02:22:42.673Z,22.70
2022-08-28T02:25:43.725Z,22.70
2022-08-28T02:28:13.337Z,22.60
2022-08-28T02:30:53.205Z,22.70
2022-08-28T02:33:22.911Z,22.40
2022-08-28T02:35:52.863Z,22.10
2022-08-28T02:38:22.705Z,22.40
2022-08-28T02:40:52.914Z,22.60
2022-08-28T02:43:22.577Z,22.50
2022-08-28T02:45:52.141Z,22.50
2022-08-28T02:48:21.804Z,22.60
2022-08-28T02:50:51.360Z,22.50
2022-08-28T02:53:20.786Z,22.40
2022-08-28T02:55:50.840Z,22.50
2022-08-28T02:58:20.449Z,22.50
2022-08-28T03:00:50.178Z,22.60
2022-08-28T03:03:21.050Z,22.50
2022-08-28T03:05:50.558Z,22.50
2022-08-28T03:08:19.997Z,22.20
2022-08-28T03:10:51.712Z,21.60
2022-08-28T03:13:26.455Z,21.60
2022-08-28T03:15:52.504Z,21.90
2022-08-28T03:18:25.270Z,22.10
2022-08-28T03:20:55.952Z,22.20
2022-08-28T03:23:28.774Z,21.90
2022-08-28T03:26:06.667Z,21.40
2022-08-28T03:28:39.465Z,21.20
2022-08-28T03:31:12.055Z,21.20
2022-08-28T03:33:43.085Z,20.90
2022-08-28T03:36:15.613Z,20.70
2022-08-28T03:38:45.301Z,20.60
2022-08-28T03:41:17.897Z,20.80
2022-08-28T03:43:48.172Z,20.90
2022-08-28T03:46:21.194Z,21.30
2022-08-28T03:48:51.453Z,21.40
2022-08-28T03:51:29.723Z,21.50
2022-08-28T03:53:57.072Z,21.10
2022-08-28T03:56:29.349Z,20.90
2022-08-28T03:59:01.562Z,21.00
2022-08-28T04:01:31.195Z,21.20
2022-08-28T04:04:00.770Z,21.20
2022-08-28T04:06:30.387Z,21.20
2022-08-28T04:09:00.319Z,20.60
2022-08-28T04:11:30.712Z,20.60
2022-08-28T04:14:00.617Z,21.00
2022-08-28T04:16:30.102Z,20.90
2022-08-28T04:18:59.956Z,20.50
2022-08-28T04:21:29.431Z,19.80
2022-08-28T04:23:58.871Z,19.70
2022-08-28T04:26:30.147Z,19.70
2022-08-28T04:29:00.055Z,19.90
2022-08-28T04:31:31.084Z,19.90
2022-08-28T04:34:03.577Z,19.80
2022-08-28T04:36:33.621Z,20.00
2022-08-28T04:39:05.887Z,20.20
2022-08-28T04:41:37.101Z,20.20
2022-08-28T04:44:07.249Z,20.30
2022-08-28T04:46:37.643Z,20.20
2022-08-28T04:49:07.428Z,20.60
2022-08-28T04:51:41.502Z,20.70
2022-08-28T04:54:10.130Z,20.40
2022-08-28T04:56:41.808Z,20.70
2022-08-28T04:59:13.884Z,20.90
2022-08-28T05:01:43.820Z,21.00
2022-08-28T05:04:13.900Z,21.10
2022-08-28T05:06:46.602Z,21.00
2022-08-28T05:09:19.137Z,21.00
2022-08-28T05:11:50.089Z,21.00
2022-08-28T05:14:21.862Z,21.10
2022-08-28T05:16:57.263Z,21.00
2022-08-28T05:19:28.563Z,21.10
2022-08-28T05:21:58.675Z,21.00
2022-08-28T05:24:28.317Z,20.90
2022-08-28T05:26:57.974Z,21.00
2022-08-28T05:29:27.420Z,21.00
2022-08-28T05:31:57.076Z,21.00
2022-08-28T05:34:26.596Z,21.10
2022-08-28T05:36:56.432Z,21.10
2022-08-28T05:39:25.873Z,21.10
2022-08-28T05:41:55.391Z,21.10
2022-08-28T05:44:24.860Z,20.80
2022-08-28T05:46:54.303Z,20.50
2022-08-28T05:49:23.821Z,20.30
2022-08-28T05:51:53.307Z,20.40
2022-08-28T05:54:23.138Z,20.00
2022-08-28T05:56:52.633Z,20.10
2022-08-28T05:59:22.110Z,20.30
2022-08-28T06:01:52.915Z,20.50
2022-08-28T06:04:25.815Z,20.60
2022-08-28T06:06:55.871Z,20.70
2022-08-28T06:09:29.635Z,20.80
2022-08-28T06:12:02.802Z,21.00
2022-08-28T06:14:35.034Z,21.00
2022-08-28T06:17:05.977Z,21.00
2022-08-28T06:19:41.367Z,21.00
2022-08-28T06:22:09.686Z,20.90
2022-08-28T06:24:39.698Z,20.50
2022-08-28T06:27:09.315Z,20.70
2022-08-28T06:29:40.069Z,20.80
2022-08-28T06:32:09.529Z,20.80
2022-08-28T06:34:39.401Z,20.70
2022-08-28T06:37:10.398Z,20.90
2022-08-28T06:39:39.988Z,20.80
2022-08-28T06:42:09.504Z,20.90
2022-08-28T06:44:40.509Z,20.80
2022-08-28T06:47:11.161Z,20.80
2022-08-28T06:49:41.447Z,21.00
2022-08-28T06:52:11.139Z,21.30
2022-08-28T06:54:40.601Z,21.70
2022-08-28T06:57:11.669Z,22.30
2022-08-28T06:59:41.135Z,23.00
2022-08-28T07:02:10.738Z,23.40
2022-08-28T07:04:40.338Z,22.80
2022-08-28T07:07:10.658Z,23.20
2022-08-28T07:09:42.395Z,23.90
2022-08-28T07:12:11.982Z,24.10
2022-08-28T07:14:41.606Z,23.40
2022-08-28T07:17:12.522Z,23.60
2022-08-28T07:19:42.114Z,23.70
2022-08-28T07:22:12.268Z,24.50
2022-08-28T07:24:41.816Z,24.40
2022-08-28T07:27:14.677Z,24.80
2022-08-28T07:29:42.545Z,24.20
2022-08-28T07:32:13.319Z,24.00
2022-08-28T07:34:43.221Z,24.40
2022-08-28T07:37:15.321Z,25.00
2022-08-28T07:39:43.964Z,24.80
2022-08-28T07:42:15.114Z,25.10
2022-08-28T07:44:50.610Z,25.20
2022-08-28T07:47:20.280Z,25.10
2022-08-28T07:49:50.322Z,25.30
2022-08-28T07:52:19.753Z,25.20
2022-08-28T07:54:49.356Z,25.60
2022-08-28T07:57:20.428Z,25.60
2022-08-28T07:59:52.466Z,25.70
2022-08-28T08:02:22.464Z,26.50
2022-08-28T08:04:52.030Z,26.30
2022-08-28T08:07:22.168Z,25.50
2022-08-28T08:09:51.759Z,26.00
2022-08-28T08:12:21.370Z,26.90
2022-08-28T08:14:51.517Z,27.70
2022-08-28T08:17:21.520Z,27.40
2022-08-28T08:19:51.041Z,27.50
2022-08-28T08:22:20.857Z,27.30
2022-08-28T08:24:50.335Z,27.30
2022-08-28T08:27:19.821Z,27.70
2022-08-28T08:29:51.004Z,27.40
2022-08-28T08:32:20.677Z,26.90
2022-08-28T08:34:50.208Z,27.40
2022-08-28T08:37:19.685Z,27.70
2022-08-28T08:39:50.872Z,28.10
2022-08-28T08:42:26.918Z,27.90
2022-08-28T08:44:58.994Z,28.50
2022-08-28T08:47:51.620Z,28.70
2022-08-28T08:50:24.130Z,29.10
2022-08-28T08:53:29.219Z,29.10
2022-08-28T08:56:00.058Z,28.00
2022-08-28T08:58:32.678Z,28.60
2022-08-28T09:01:23.480Z,28.80
2022-08-28T09:04:01.842Z,29.70
2022-08-28T09:06:43.504Z,30.60
2022-08-28T09:09:41.000Z,30.40
2022-08-28T09:12:16.089Z,30.90
2022-08-28T09:15:08.235Z,30.10
2022-08-28T09:17:44.995Z,31.10
2022-08-28T09:20:17.640Z,31.60
2022-08-28T09:22:50.026Z,32.20
2022-08-28T09:25:56.662Z,32.70
2022-08-28T09:28:36.997Z,31.30
2022-08-28T09:31:15.845Z,31.60
2022-08-28T09:33:49.653Z,30.80
2022-08-28T09:36:33.884Z,31.20
2022-08-28T09:39:22.742Z,31.90
2022-08-28T09:42:15.908Z,32.20
2022-08-28T09:44:57.257Z,32.00
2022-08-28T09:47:58.446Z,31.70
2022-08-28T09:50:42.018Z,31.50
2022-08-28T09:53:14.594Z,31.50
2022-08-28T09:55:56.809Z,31.70
2022-08-28T09:58:29.240Z,31.10
2022-08-28T10:01:01.959Z,31.90
2022-08-28T10:03:37.323Z,32.40
2022-08-28T10:06:21.764Z,32.20
2022-08-28T10:08:54.852Z,32.90
2022-08-28T10:11:44.434Z,33.00
2022-08-28T10:14:16.999Z,33.60
2022-08-28T10:16:49.559Z,32.80
2022-08-28T10:19:19.764Z,32.90
2022-08-28T10:21:58.399Z,34.20
2022-08-28T10:24:33.859Z,34.80
2022-08-28T10:27:06.786Z,34.40
2022-08-28T10:29:47.801Z,33.50
2022-08-28T10:32:41.884Z,33.20
2022-08-28T10:35:14.484Z,31.90
2022-08-28T10:37:47.582Z,32.20
2022-08-28T10:40:32.337Z,34.10
2022-08-28T10:43:16.650Z,33.10
2022-08-28T10:45:46.732Z,32.00
2022-08-28T10:48:27.822Z,32.70
2022-08-28T10:51:06.656Z,34.10
2022-08-28T10:53:57.301Z,34.20
2022-08-28T10:56:38.565Z,35.10
2022-08-28T10:59:08.554Z,34.10
2022-08-28T11:01:40.290Z,32.60
2022-08-28T11:04:12.847Z,34.40
2022-08-28T11:06:45.462Z,34.10
2022-08-28T11:09:29.683Z,34.40
2022-08-28T11:12:02.595Z,32.70
2022-08-28T11:14:35.658Z,33.30
2022-08-28T11:17:14.336Z,33.00
2022-08-28T11:20:04.381Z,33.00
2022-08-28T11:22:43.102Z,33.70
2022-08-28T11:25:38.293Z,33.60
2022-08-28T11:28:23.200Z,33.60
2022-08-28T11:31:19.020Z,34.90
2022-08-28T11:33:52.646Z,34.50
2022-08-28T11:36:29.847Z,34.80
2022-08-28T11:39:05.087Z,33.70
2022-08-28T11:41:38.589Z,35.50
2022-08-28T11:44:14.046Z,35.20
2022-08-28T11:46:51.793Z,33.70
2022-08-28T11:49:36.347Z,34.30
2022-08-28T11:52:17.822Z,35.40
2022-08-28T11:55:08.668Z,36.70
2022-08-28T11:58:14.350Z,35.50
2022-08-28T12:01:11.240Z,35.90
2022-08-28T12:03:46.547Z,35.60
2022-08-28T12:06:16.167Z,36.40
2022-08-28T12:08:57.723Z,36.60
2022-08-28T12:11:45.603Z,36.40
2022-08-28T12:14:30.322Z,34.10
2022-08-28T12:17:05.961Z,35.10
2022-08-28T12:19:55.594Z,35.40
2022-08-28T12:22:24.997Z,35.90
2022-08-28T12:25:00.132Z,36.30
2022-08-28T12:27:30.412Z,37.70
2022-08-28T12:30:01.820Z,38.00
2022-08-28T12:32:53.450Z,38.10
2022-08-28T12:35:25.930Z,38.00
2022-08-28T12:37:58.433Z,37.70
2022-08-28T12:40:34.074Z,37.60
2022-08-28T12:43:09.054Z,37.90
2022-08-28T12:45:53.982Z,37.30
2022-08-28T12:48:29.580Z,37.20
2022-08-28T12:51:08.169Z,38.20
2022-08-28T12:53:50.108Z,38.20
2022-08-28T12:56:22.297Z,36.30
2022-08-28T12:58:52.014Z,34.70
2022-08-28T13:01:33.133Z,34.60
2022-08-28T13:04:05.854Z,34.60
2022-08-28T13:06:38.587Z,34.50
2022-08-28T13:09:16.945Z,35.80
2022-08-28T13:11:49.958Z,37.00
2022-08-28T13:14:38.494Z,36.20
2022-08-28T13:17:09.040Z,35.40
2022-08-28T13:19:39.362Z,35.00
2022-08-28T13:22:34.622Z,34.50
2022-08-28T13:25:05.723Z,35.00
2022-08-28T13:27:35.484Z,35.60
2022-08-28T13:30:20.186Z,35.50
2022-08-28T13:33:06.357Z,35.10
2022-08-28T13:35:42.024Z,36.20
2022-08-28T13:38:14.553Z,36.00
2022-08-28T13:40:59.136Z,35.70
2022-08-28T13:43:24.265Z,35.70
2022-08-28T13:45:53.399Z,35.20
2022-08-28T13:48:25.240Z,35.30
2022-08-28T13:51:00.616Z,35.70
2022-08-28T13:53:32.343Z,36.80
2022-08-28T13:56:02.821Z,36.70
2022-08-28T13:58:32.791Z,36.60
2022-08-28T14:01:03.427Z,35.30
2022-08-28T14:03:36.045Z,34.20
2022-08-28T14:06:14.556Z,34.70
2022-08-28T14:08:45.830Z,34.30
2022-08-28T14:11:16.544Z,34.50
2022-08-28T14:13:47.294Z,35.30
2022-08-28T14:16:17.320Z,35.80
2022-08-28T14:18:46.824Z,36.20
2022-08-28T14:21:17.128Z,36.80
2022-08-28T14:23:46.745Z,35.50
2022-08-28T14:26:16.325Z,35.90
2022-08-28T14:28:45.934Z,36.40
2022-08-28T14:31:15.509Z,35.30
2022-08-28T14:33:46.239Z,35.20
2022-08-28T14:36:18.901Z,35.00
2022-08-28T14:38:52.668Z,34.60
2022-08-28T14:41:21.395Z,34.60
2022-08-28T14:43:51.415Z,35.40
2022-08-28T14:46:29.706Z,34.30
2022-08-28T14:49:04.010Z,34.00
2022-08-28T14:51:35.263Z,35.10
2022-08-28T14:54:05.778Z,34.90
2022-08-28T14:56:35.846Z,34.80
2022-08-28T14:59:08.195Z,35.00
2022-08-28T15:01:41.151Z,34.80
2022-08-28T15:04:14.223Z,35.40
2022-08-28T15:06:44.799Z,35.80
2022-08-28T15:09:15.783Z,35.90
2022-08-28T15:11:45.610Z,36.00
2022-08-28T15:14:15.422Z,36.10
2022-08-28T15:16:47.678Z,35.70
2022-08-28T15:19:18.717Z,35.50
2022-08-28T15:21:54.093Z,34.80
2022-08-28T15:24:26.676Z,34.40
2022-08-28T15:26:57.129Z,34.20
2022-08-28T15:29:29.943Z,34.60
2022-08-28T15:32:00.766Z,34.10
2022-08-28T15:34:30.354Z,34.40
2022-08-28T15:37:01.539Z,34.60
2022-08-28T15:39:51.024Z,34.40
2022-08-28T15:42:20.489Z,34.70
2022-08-28T15:44:50.006Z,34.70
2022-08-28T15:47:19.506Z,35.10
2022-08-28T15:49:52.251Z,35.20
2022-08-28T15:52:22.580Z,34.40
2022-08-28T15:54:52.036Z,34.60
2022-08-28T15:57:21.646Z,34.60
2022-08-28T15:59:51.358Z,34.60
2022-08-28T16:02:23.459Z,34.60
2022-08-28T16:04:54.179Z,34.30
2022-08-28T16:07:25.113Z,34.00
2022-08-28T16:09:55.207Z,33.80
2022-08-28T16:12:25.671Z,33.70
2022-08-28T16:14:55.138Z,33.90
2022-08-28T16:17:24.613Z,34.00
2022-08-28T16:19:54.235Z,33.90
2022-08-28T16:22:23.739Z,34.10
2022-08-28T16:24:53.188Z,34.20
2022-08-28T16:27:22.647Z,34.30
2022-08-28T16:32:23.515Z,33.80
2022-08-28T16:34:54.515Z,34.00
2022-08-28T16:35:55.980Z,34.00
2022-08-28T16:37:24.666Z,33.90
2022-08-28T16:39:57.935Z,33.60
2022-08-28T16:42:32.218Z,33.40
2022-08-28T16:45:22.951Z,33.50
2022-08-28T16:47:52.457Z,33.50
2022-08-28T16:50:22.371Z,33.40
2022-08-28T16:52:52.107Z,33.10
2022-08-28T16:55:21.616Z,33.20
2022-08-28T16:57:51.246Z,33.10
2022-08-28T17:00:21.130Z,33.20
2022-08-28T17:02:50.939Z,33.20
2022-08-28T17:05:22.762Z,33.20
2022-08-28T17:07:52.948Z,33.10
2022-08-28T17:10:25.714Z,33.10
2022-08-28T17:12:55.321Z,32.80
2022-08-28T17:15:24.839Z,32.70
2022-08-28T17:17:54.370Z,32.70
2022-08-28T17:20:41.927Z,32.60
2022-08-28T17:23:11.399Z,32.60
2022-08-28T17:25:40.828Z,32.70
2022-08-28T17:28:11.098Z,32.70
2022-08-28T17:30:40.724Z,32.50
2022-08-28T17:33:10.261Z,32.50
2022-08-28T17:35:42.059Z,32.50
2022-08-28T17:38:11.061Z,32.40
2022-08-28T17:40:41.015Z,32.50
2022-08-28T17:43:10.653Z,32.40
2022-08-28T17:45:40.118Z,32.40
2022-08-28T17:48:09.660Z,32.30
2022-08-28T17:50:39.174Z,32.30
2022-08-28T17:53:08.959Z,32.20
2022-08-28T17:55:38.450Z,32.10
2022-08-28T17:58:08.432Z,31.90
2022-08-28T18:00:39.642Z,32.00
2022-08-28T18:03:09.182Z,32.00
2022-08-28T18:05:41.342Z,31.80
2022-08-28T18:08:10.916Z,31.80
2022-08-28T18:10:40.704Z,31.70
2022-08-28T18:13:10.212Z,31.60
2022-08-28T18:15:39.874Z,31.70
2022-08-28T18:18:14.245Z,31.60
2022-08-28T18:20:44.302Z,31.50
2022-08-28T18:23:13.807Z,31.50
2022-08-28T18:25:50.866Z,31.40
2022-08-28T18:28:23.357Z,31.30
2022-08-28T18:30:53.931Z,31.20
2022-08-28T18:33:25.064Z,31.20
2022-08-28T18:35:55.484Z,31.00
2022-08-28T18:38:27.912Z,31.00
2022-08-28T18:40:59.967Z,31.00
2022-08-28T18:43:29.886Z,30.90
2022-08-28T18:46:02.380Z,30.90
2022-08-28T18:48:33.432Z,30.80
2022-08-28T18:51:05.096Z,30.80
2022-08-28T18:53:35.573Z,30.80
2022-08-28T18:56:06.113Z,30.70
2022-08-28T18:58:35.689Z,30.60
2022-08-28T19:01:05.461Z,30.60
2022-08-28T19:03:35.480Z,30.60
2022-08-28T19:06:06.378Z,30.50
2022-08-28T19:08:55.165Z,30.50
2022-08-28T19:11:24.657Z,30.50
2022-08-28T19:13:54.207Z,30.30
2022-08-28T19:16:23.843Z,30.30
2022-08-28T19:18:55.041Z,30.30
2022-08-28T19:21:24.597Z,30.20
2022-08-28T19:23:56.282Z,30.10
2022-08-28T19:26:28.676Z,30.10
2022-08-28T19:28:59.767Z,30.10
2022-08-28T19:31:29.871Z,30.00
2022-08-28T19:33:59.447Z,30.00
2022-08-28T19:36:30.555Z,29.80
2022-08-28T19:39:01.276Z,29.70
2022-08-28T19:41:32.452Z,29.70
2022-08-28T19:44:01.959Z,29.70
2022-08-28T19:46:32.560Z,29.70
2022-08-28T19:49:03.719Z,29.80
2022-08-28T19:51:33.896Z,29.70
2022-08-28T19:54:04.040Z,29.70
2022-08-28T19:56:35.114Z,29.60
2022-08-28T19:59:07.466Z,29.60
2022-08-28T20:01:40.107Z,29.50
2022-08-28T20:04:12.995Z,29.40
2022-08-28T20:06:42.417Z,29.30
2022-08-28T20:09:13.185Z,29.20
2022-08-28T20:11:45.385Z,29.20
2022-08-28T20:14:16.962Z,29.10
2022-08-28T20:16:48.641Z,29.20
2022-08-28T20:19:20.142Z,29.00
2022-08-28T20:21:51.088Z,29.10
2022-08-28T20:24:24.218Z,29.00
2022-08-28T20:26:54.840Z,28.90
2022-08-28T20:29:26.118Z,28.90
2022-08-28T20:31:55.661Z,28.90
2022-08-28T20:34:25.239Z,28.80
2022-08-28T20:36:54.772Z,28.80
2022-08-28T20:39:25.017Z,28.70
2022-08-28T20:41:54.745Z,28.70
2022-08-28T20:44:24.924Z,28.70
2022-08-28T20:46:54.970Z,28.50
2022-08-28T20:49:24.514Z,28.50
2022-08-28T20:51:56.153Z,28.50
2022-08-28T20:54:34.767Z,28.30
2022-08-28T20:57:07.777Z,27.40
2022-08-28T20:59:40.198Z,27.40
2022-08-28T21:02:13.614Z,27.50
2022-08-28T21:04:44.531Z,27.50
2022-08-28T21:07:17.095Z,27.70
2022-08-28T21:10:07.277Z,27.60
2022-08-28T21:12:19.199Z,27.60
2022-08-28T21:14:51.321Z,27.70
2022-08-28T21:17:28.927Z,27.60
2022-08-28T21:19:54.057Z,27.60
2022-08-28T21:22:23.547Z,27.50
2022-08-28T21:24:53.063Z,27.60
2022-08-28T21:27:22.606Z,27.50
2022-08-28T21:29:52.116Z,27.50
2022-08-28T21:32:21.668Z,27.40
2022-08-28T21:34:51.443Z,27.50
2022-08-28T21:37:21.023Z,27.30
2022-08-28T21:39:51.034Z,27.20
2022-08-28T21:42:20.624Z,27.20
2022-08-28T21:44:52.020Z,27.20
2022-08-28T21:47:25.980Z,27.00
2022-08-28T21:49:57.784Z,27.10
2022-08-28T21:52:30.383Z,26.90
2022-08-28T21:55:02.696Z,27.00
2022-08-28T21:57:33.370Z,26.90
2022-08-28T22:00:03.325Z,26.90
2022-08-28T22:02:34.490Z,26.80
2022-08-28T22:05:04.096Z,26.90
2022-08-28T22:07:33.604Z,27.00
2022-08-28T22:10:03.244Z,26.90
2022-08-28T22:12:32.845Z,26.80
2022-08-28T22:15:02.508Z,26.60
2022-08-28T22:17:32.122Z,26.70
2022-08-28T22:20:01.833Z,26.70
2022-08-28T22:22:49.248Z,27.00
2022-08-28T22:25:18.793Z,27.00
2022-08-28T22:27:48.247Z,27.10
2022-08-28T22:30:17.826Z,27.20
2022-08-28T22:32:47.439Z,27.20
2022-08-28T22:35:17.042Z,27.20
2022-08-28T22:37:47.508Z,27.20
2022-08-28T22:40:17.199Z,27.10
2022-08-28T22:42:47.688Z,27.10
2022-08-28T22:45:20.665Z,27.20
2022-08-28T22:47:51.795Z,27.10
2022-08-28T22:50:21.372Z,27.10
2022-08-28T22:52:51.583Z,26.90
2022-08-28T22:55:22.968Z,27.00
2022-08-28T22:57:53.423Z,27.00
2022-08-28T23:00:25.866Z,27.00
2022-08-28T23:02:58.577Z,26.90
2022-08-28T23:05:28.965Z,26.70
2022-08-28T23:07:58.328Z,26.60
2022-08-28T23:10:48.348Z,26.70
2022-08-28T23:12:59.129Z,26.60
2022-08-28T23:15:28.865Z,26.50
2022-08-28T23:17:58.487Z,26.40
2022-08-28T23:20:29.730Z,26.60
2022-08-28T23:22:59.374Z,26.70
2022-08-28T23:25:28.947Z,26.70
2022-08-28T23:27:58.531Z,26.50
2022-08-28T23:30:28.582Z,26.30
2022-08-28T23:32:58.548Z,26.30
2022-08-28T23:35:27.978Z,26.30
2022-08-28T23:37:57.538Z,26.30
2022-08-28T23:40:28.208Z,26.40
2022-08-28T23:42:59.165Z,26.40
2022-08-28T23:45:28.739Z,26.50
2022-08-28T23:47:59.573Z,26.40
2022-08-28T23:50:29.614Z,26.40
2022-08-28T23:52:59.233Z,26.30
2022-08-28T23:55:30.104Z,26.30
2022-08-28T23:57:59.714Z,26.10
